sensor_id;sensor_type;location;lat;lon;timestamp;pressure;altitude;pressure_sealevel;temperature;humidity
70304;BME280;57712;48.752;11.348;2024-01-07T00:00:53;96783.25;;;5.08;100.00
70304;BME280;57712;48.752;11.348;2024-01-07T00:03:20;96792.66;;;4.96;100.00
70304;BME280;57712;48.752;11.348;2024-01-07T00:05:47;96788.34;;;4.99;100.00
70304;BME280;57712;48.752;11.348;2024-01-07T00:08:14;96782.94;;;4.99;100.00
70304;BME280;57712;48.752;11.348;2024-01-07T00:10:40;96786.72;;;5.08;100.00
70304;BME280;57712;48.752;11.348;2024-01-07T00:13:07;96790.66;;;5.00;100.00
70304;BME280;57712;48.752;11.348;2024-01-07T00:15:34;96775.88;;;5.08;100.00
70304;BME280;57712;48.752;11.348;2024-01-07T00:18:01;96784.53;;;4.92;100.00
70304;BME280;57712;48.752;11.348;2024-01-07T00:20:28;96782.22;;;4.91;100.00
70304;BME280;57712;48.752;11.348;2024-01-07T00:22:54;96778.25;;;5.03;100.00
70304;BME280;57712;48.752;11.348;2024-01-07T00:25:22;96770.44;;;5.08;100.00
70304;BME280;57712;48.752;11.348;2024-01-07T00:27:49;96779.44;;;5.02;100.00
70304;BME280;57712;48.752;11.348;2024-01-07T00:30:18;96775.16;;;5.04;100.00
70304;BME280;57712;48.752;11.348;2024-01-07T00:32:44;96785.28;;;4.97;100.00
70304;BME280;57712;48.752;11.348;2024-01-07T00:35:11;96789.16;;;4.96;100.00
70304;BME280;57712;48.752;11.348;2024-01-07T00:37:38;96788.38;;;4.95;100.00
70304;BME280;57712;48.752;11.348;2024-01-07T00:40:05;96791.47;;;4.97;100.00
70304;BME280;57712;48.752;11.348;2024-01-07T00:42:32;96778.25;;;5.03;100.00
70304;BME280;57712;48.752;11.348;2024-01-07T00:44:59;96780.13;;;5.09;100.00
70304;BME280;57712;48.752;11.348;2024-01-07T00:47:25;96778.63;;;5.05;100.00
70304;BME280;57712;48.752;11.348;2024-01-07T00:49:52;96781.63;;;5.17;100.00
70304;BME280;57712;48.752;11.348;2024-01-07T00:52:19;96786.72;;;5.08;100.00
70304;BME280;57712;48.752;11.348;2024-01-07T00:54:46;96780.09;;;5.16;100.00
70304;BME280;57712;48.752;11.348;2024-01-07T00:57:12;96783.97;;;5.15;100.00
70304;BME280;57712;48.752;11.348;2024-01-07T00:59:39;96790.13;;;5.19;100.00
70304;BME280;57712;48.752;11.348;2024-01-07T01:02:06;96795.91;;;5.25;100.00
70304;BME280;57712;48.752;11.348;2024-01-07T01:04:33;96786.63;;;5.22;100.00
70304;BME280;57712;48.752;11.348;2024-01-07T01:06:59;96791.06;;;5.02;100.00
70304;BME280;57712;48.752;11.348;2024-01-07T01:09:28;96800.66;;;5.10;100.00
70304;BME280;57712;48.752;11.348;2024-01-07T01:11:55;96802.25;;;5.08;100.00
70304;BME280;57712;48.752;11.348;2024-01-07T01:14:21;96785.50;;;5.16;100.00
70304;BME280;57712;48.752;11.348;2024-01-07T01:16:48;96796.00;;;5.14;100.00
70304;BME280;57712;48.752;11.348;2024-01-07T01:19:15;96800.63;;;5.17;100.00
70304;BME280;57712;48.752;11.348;2024-01-07T01:21:42;96806.09;;;5.10;100.00
70304;BME280;57712;48.752;11.348;2024-01-07T01:24:09;96811.88;;;5.16;100.00
70304;BME280;57712;48.752;11.348;2024-01-07T01:26:35;96803.72;;;5.19;100.00
70304;BME280;57712;48.752;11.348;2024-01-07T01:29:02;96799.09;;;5.16;100.00
70304;BME280;57712;48.752;11.348;2024-01-07T01:31:29;96812.66;;;5.16;100.00
70304;BME280;57712;48.752;11.348;2024-01-07T01:33:56;96810.75;;;5.10;100.00
70304;BME280;57712;48.752;11.348;2024-01-07T01:36:23;96810.44;;;5.04;100.00
70304;BME280;57712;48.752;11.348;2024-01-07T01:38:50;96806.50;;;5.12;100.00
70304;BME280;57712;48.752;11.348;2024-01-07T01:41:17;96807.72;;;5.04;100.00
70304;BME280;57712;48.752;11.348;2024-01-07T01:43:43;96802.94;;;5.19;100.00
70304;BME280;57712;48.752;11.348;2024-01-07T01:46:10;96801.47;;;5.11;100.00
70304;BME280;57712;48.752;11.348;2024-01-07T01:48:37;96806.50;;;5.12;100.00
70304;BME280;57712;48.752;11.348;2024-01-07T01:51:04;96809.63;;;5.11;100.00
70304;BME280;57712;48.752;11.348;2024-01-07T01:53:32;96807.72;;;5.04;100.00
70304;BME280;57712;48.752;11.348;2024-01-07T01:56:00;96797.53;;;5.15;100.00
70304;BME280;57712;48.752;11.348;2024-01-07T01:58:29;96809.28;;;4.98;100.00
70304;BME280;57712;48.752;11.348;2024-01-07T02:00:56;96804.63;;;4.99;100.00
70304;BME280;57712;48.752;11.348;2024-01-07T02:03:23;96807.72;;;5.04;100.00
70304;BME280;57712;48.752;11.348;2024-01-07T02:05:50;96811.59;;;5.03;100.00
70304;BME280;57712;48.752;11.348;2024-01-07T02:08:18;96805.47;;;4.92;100.00
70304;BME280;57712;48.752;11.348;2024-01-07T02:10:45;96808.19;;;4.92;100.00
70304;BME280;57712;48.752;11.348;2024-01-07T02:13:12;96812.84;;;4.88;100.00
70304;BME280;57712;48.752;11.348;2024-01-07T02:15:39;96810.53;;;4.90;100.00
70304;BME280;57712;48.752;11.348;2024-01-07T02:18:05;96808.94;;;4.96;100.00
70304;BME280;57712;48.752;11.348;2024-01-07T02:20:32;96813.63;;;4.92;100.00
70304;BME280;57712;48.752;11.348;2024-01-07T02:22:59;96805.53;;;4.85;100.00
70304;BME280;57712;48.752;11.348;2024-01-07T02:25:26;96810.56;;;4.83;100.00
70304;BME280;57712;48.752;11.348;2024-01-07T02:27:52;96810.22;;;4.81;100.00
70304;BME280;57712;48.752;11.348;2024-01-07T02:30:19;96801.63;;;4.86;100.00
70304;BME280;57712;48.752;11.348;2024-01-07T02:32:46;96811.34;;;4.83;100.00
70304;BME280;57712;48.752;11.348;2024-01-07T02:35:13;96808.63;;;4.83;100.00
70304;BME280;57712;48.752;11.348;2024-01-07T02:37:40;96810.66;;;4.69;100.00
70304;BME280;57712;48.752;11.348;2024-01-07T02:40:07;96808.69;;;4.73;100.00
70304;BME280;57712;48.752;11.348;2024-01-07T02:42:33;96808.66;;;4.76;100.00
70304;BME280;57712;48.752;11.348;2024-01-07T02:45:00;96808.72;;;4.69;100.00
70304;BME280;57712;48.752;11.348;2024-01-07T02:47:27;96805.63;;;4.71;100.00
70304;BME280;57712;48.752;11.348;2024-01-07T02:49:54;96802.91;;;4.71;100.00
70304;BME280;57712;48.752;11.348;2024-01-07T02:52:21;96800.25;;;4.56;100.00
70304;BME280;57712;48.752;11.348;2024-01-07T02:54:47;96806.03;;;4.66;100.00
70304;BME280;57712;48.752;11.348;2024-01-07T02:57:14;96802.56;;;4.58;100.00
70304;BME280;57712;48.752;11.348;2024-01-07T02:59:41;96801.00;;;4.64;100.00
70304;BME280;57712;48.752;11.348;2024-01-07T03:02:07;96795.53;;;4.68;100.00
70304;BME280;57712;48.752;11.348;2024-01-07T03:04:34;96793.25;;;4.62;100.00
70304;BME280;57712;48.752;11.348;2024-01-07T03:07:00;96800.97;;;4.68;100.00
70304;BME280;57712;48.752;11.348;2024-01-07T03:09:27;96795.56;;;4.64;100.00
70304;BME280;57712;48.752;11.348;2024-01-07T03:11:56;96804.44;;;4.72;100.00
70304;BME280;57712;48.752;11.348;2024-01-07T03:14:23;96796.34;;;4.64;100.00
70304;BME280;57712;48.752;11.348;2024-01-07T03:16:50;96797.19;;;4.54;100.00
70304;BME280;57712;48.752;11.348;2024-01-07T03:19:17;96797.16;;;4.61;100.00
70304;BME280;57712;48.752;11.348;2024-01-07T03:21:43;96797.50;;;4.63;100.00
70304;BME280;57712;48.752;11.348;2024-01-07T03:24:10;96797.19;;;4.54;100.00
70304;BME280;57712;48.752;11.348;2024-01-07T03:26:37;96802.59;;;4.54;100.00
70304;BME280;57712;48.752;11.348;2024-01-07T03:29:03;96806.44;;;4.57;100.00
70304;BME280;57712;48.752;11.348;2024-01-07T03:31:30;96804.94;;;4.52;100.00
70304;BME280;57712;48.752;11.348;2024-01-07T03:33:57;96804.91;;;4.56;100.00
70304;BME280;57712;48.752;11.348;2024-01-07T03:36:24;96799.84;;;4.58;100.00
70304;BME280;57712;48.752;11.348;2024-01-07T03:38:51;96807.66;;;4.52;100.00
70304;BME280;57712;48.752;11.348;2024-01-07T03:41:18;96811.91;;;4.53;100.00
70304;BME280;57712;48.752;11.348;2024-01-07T03:43:49;96818.88;;;4.54;100.00
70304;BME280;57712;48.752;11.348;2024-01-07T03:46:16;96809.97;;;4.54;100.00
70304;BME280;57712;48.752;11.348;2024-01-07T03:48:43;96821.19;;;4.59;100.00
70304;BME280;57712;48.752;11.348;2024-01-07T03:51:10;96815.75;;;4.59;100.00
70304;BME280;57712;48.752;11.348;2024-01-07T03:53:37;96815.00;;;4.59;100.00
70304;BME280;57712;48.752;11.348;2024-01-07T03:56:04;96815.78;;;4.52;100.00
70304;BME280;57712;48.752;11.348;2024-01-07T03:58:30;96818.06;;;4.57;100.00
70304;BME280;57712;48.752;11.348;2024-01-07T04:00:57;96821.19;;;4.59;100.00
70304;BME280;57712;48.752;11.348;2024-01-07T04:03:24;96825.81;;;4.62;100.00
70304;BME280;57712;48.752;11.348;2024-01-07T04:05:51;96829.69;;;4.58;100.00
70304;BME280;57712;48.752;11.348;2024-01-07T04:08:17;96828.56;;;4.55;100.00
70304;BME280;57712;48.752;11.348;2024-01-07T04:10:44;96833.97;;;4.55;100.00
70304;BME280;57712;48.752;11.348;2024-01-07T04:13:11;96828.13;;;4.64;100.00
70304;BME280;57712;48.752;11.348;2024-01-07T04:15:38;96835.88;;;4.62;100.00
70304;BME280;57712;48.752;11.348;2024-01-07T04:18:04;96841.28;;;4.66;100.00
70304;BME280;57712;48.752;11.348;2024-01-07T04:20:31;96832.00;;;4.63;100.00
70304;BME280;57712;48.752;11.348;2024-01-07T04:22:58;96835.47;;;4.71;100.00
70304;BME280;57712;48.752;11.348;2024-01-07T04:25:25;96843.63;;;4.63;100.00
70304;BME280;57712;48.752;11.348;2024-01-07T04:27:52;96839.72;;;4.72;100.00
70304;BME280;57712;48.752;11.348;2024-01-07T04:30:18;96846.31;;;4.71;100.00
70304;BME280;57712;48.752;11.348;2024-01-07T04:32:45;96849.00;;;4.74;100.00
70304;BME280;57712;48.752;11.348;2024-01-07T04:35:12;96845.16;;;4.64;100.00
70304;BME280;57712;48.752;11.348;2024-01-07T04:37:39;96845.97;;;4.61;100.00
70304;BME280;57712;48.752;11.348;2024-01-07T04:40:06;96851.34;;;4.69;100.00
70304;BME280;57712;48.752;11.348;2024-01-07T04:42:33;96856.34;;;4.74;100.00
70304;BME280;57712;48.752;11.348;2024-01-07T04:45:00;96866.03;;;4.75;100.00
70304;BME280;57712;48.752;11.348;2024-01-07T04:47:29;96859.47;;;4.72;100.00
70304;BME280;57712;48.752;11.348;2024-01-07T04:49:57;96859.94;;;4.60;100.00
70304;BME280;57712;48.752;11.348;2024-01-07T04:52:24;96873.44;;;4.71;100.00
70304;BME280;57712;48.752;11.348;2024-01-07T04:54:53;96868.44;;;4.58;100.00
70304;BME280;57712;48.752;11.348;2024-01-07T04:57:20;96869.59;;;4.57;100.00
70304;BME280;57712;48.752;11.348;2024-01-07T04:59:48;96868.44;;;4.58;100.00
70304;BME280;57712;48.752;11.348;2024-01-07T05:02:15;96879.28;;;4.58;100.00
70304;BME280;57712;48.752;11.348;2024-01-07T05:04:42;96878.50;;;4.61;100.00
70304;BME280;57712;48.752;11.348;2024-01-07T05:07:08;96879.31;;;4.55;100.00
70304;BME280;57712;48.752;11.348;2024-01-07T05:09:35;96880.16;;;4.41;100.00
70304;BME280;57712;48.752;11.348;2024-01-07T05:12:02;96884.78;;;4.37;100.00
70304;BME280;57712;48.752;11.348;2024-01-07T05:14:29;96888.63;;;4.50;100.00
70304;BME280;57712;48.752;11.348;2024-01-07T05:16:56;96886.31;;;4.45;100.00
70304;BME280;57712;48.752;11.348;2024-01-07T05:19:22;96888.66;;;4.43;100.00
70304;BME280;57712;48.752;11.348;2024-01-07T05:21:50;96887.50;;;4.37;100.00
70304;BME280;57712;48.752;11.348;2024-01-07T05:24:16;96888.63;;;4.50;100.00
70304;BME280;57712;48.752;11.348;2024-01-07T05:26:44;96894.84;;;4.44;100.00
70304;BME280;57712;48.752;11.348;2024-01-07T05:29:11;96890.19;;;4.44;100.00
70304;BME280;57712;48.752;11.348;2024-01-07T05:31:41;96897.16;;;4.52;100.00
70304;BME280;57712;48.752;11.348;2024-01-07T05:34:08;96896.41;;;4.41;100.00
70304;BME280;57712;48.752;11.348;2024-01-07T05:36:36;96896.41;;;4.38;100.00
70304;BME280;57712;48.752;11.348;2024-01-07T05:39:02;96901.06;;;4.37;100.00
70304;BME280;57712;48.752;11.348;2024-01-07T05:41:32;96904.94;;;4.40;100.00
70304;BME280;57712;48.752;11.348;2024-01-07T05:43:59;96907.25;;;4.38;100.00
70304;BME280;57712;48.752;11.348;2024-01-07T05:46:25;96909.59;;;4.39;100.00
70304;BME280;57712;48.752;11.348;2024-01-07T05:48:52;96908.81;;;4.42;100.00
70304;BME280;57712;48.752;11.348;2024-01-07T05:51:19;96917.31;;;4.37;100.00
70304;BME280;57712;48.752;11.348;2024-01-07T05:53:46;96917.75;;;4.32;100.00
70304;BME280;57712;48.752;11.348;2024-01-07T05:56:13;96915.81;;;4.32;100.00
70304;BME280;57712;48.752;11.348;2024-01-07T05:58:40;96917.00;;;4.21;100.00
70304;BME280;57712;48.752;11.348;2024-01-07T06:01:07;96928.63;;;4.18;100.00
70304;BME280;57712;48.752;11.348;2024-01-07T06:03:35;96930.56;;;4.21;100.00
70304;BME280;57712;48.752;11.348;2024-01-07T06:06:02;96924.34;;;4.24;100.00
70304;BME280;57712;48.752;11.348;2024-01-07T06:08:29;96926.69;;;4.22;100.00
70304;BME280;57712;48.752;11.348;2024-01-07T06:10:56;96927.84;;;4.17;100.00
70304;BME280;57712;48.752;11.348;2024-01-07T06:13:22;96933.63;;;4.23;100.00
70304;BME280;57712;48.752;11.348;2024-01-07T06:15:49;96936.75;;;4.18;100.00
70304;BME280;57712;48.752;11.348;2024-01-07T06:18:16;96930.56;;;4.21;100.00
70304;BME280;57712;48.752;11.348;2024-01-07T06:20:43;96934.84;;;4.08;100.00
70304;BME280;57712;48.752;11.348;2024-01-07T06:23:09;96935.97;;;4.14;100.00
70304;BME280;57712;48.752;11.348;2024-01-07T06:25:36;96929.78;;;4.17;100.00
70304;BME280;57712;48.752;11.348;2024-01-07T06:28:03;96937.53;;;4.22;100.00
70304;BME280;57712;48.752;11.348;2024-01-07T06:30:33;96941.41;;;4.10;100.00
70304;BME280;57712;48.752;11.348;2024-01-07T06:33:00;96939.09;;;4.12;100.00
70304;BME280;57712;48.752;11.348;2024-01-07T06:35:28;96940.25;;;4.08;100.00
70304;BME280;57712;48.752;11.348;2024-01-07T06:37:54;96944.53;;;3.98;100.00
70304;BME280;57712;48.752;11.348;2024-01-07T06:40:21;96948.41;;;3.90;100.00
70304;BME280;57712;48.752;11.348;2024-01-07T06:42:50;96956.91;;;3.81;100.00
70304;BME280;57712;48.752;11.348;2024-01-07T06:45:17;96946.84;;;3.85;100.00
70304;BME280;57712;48.752;11.348;2024-01-07T06:47:44;96951.50;;;3.78;100.00
70304;BME280;57712;48.752;11.348;2024-01-07T06:50:11;96954.97;;;3.74;100.00
70304;BME280;57712;48.752;11.348;2024-01-07T06:52:37;96965.41;;;3.83;100.00
70304;BME280;57712;48.752;11.348;2024-01-07T06:55:04;96961.53;;;3.84;100.00
70304;BME280;57712;48.752;11.348;2024-01-07T06:57:31;96965.44;;;3.90;100.00
70304;BME280;57712;48.752;11.348;2024-01-07T06:59:58;96960.78;;;3.73;100.00
70304;BME280;57712;48.752;11.348;2024-01-07T07:02:25;96961.53;;;3.84;100.00
70304;BME280;57712;48.752;11.348;2024-01-07T07:04:51;96964.66;;;3.72;100.00
70304;BME280;57712;48.752;11.348;2024-01-07T07:07:18;96972.78;;;3.79;100.00
70304;BME280;57712;48.752;11.348;2024-01-07T07:09:45;96963.50;;;3.87;100.00
70304;BME280;57712;48.752;11.348;2024-01-07T07:12:12;96966.22;;;3.98;100.00
70304;BME280;57712;48.752;11.348;2024-01-07T07:14:39;96981.69;;;3.97;100.00
70304;BME280;57712;48.752;11.348;2024-01-07T07:17:06;96976.28;;;3.97;100.00
70304;BME280;57712;48.752;11.348;2024-01-07T07:19:33;96974.72;;;3.96;100.00
70304;BME280;57712;48.752;11.348;2024-01-07T07:22:00;96976.28;;;3.97;100.00
70304;BME280;57712;48.752;11.348;2024-01-07T07:24:27;96981.66;;;3.94;100.00
70304;BME280;57712;48.752;11.348;2024-01-07T07:26:54;96987.09;;;4.04;100.00
70304;BME280;57712;48.752;11.348;2024-01-07T07:29:21;96990.22;;;4.07;100.00
70304;BME280;57712;48.752;11.348;2024-01-07T07:31:47;96985.56;;;4.18;100.00
70304;BME280;57712;48.752;11.348;2024-01-07T07:34:15;96995.59;;;4.03;100.00
70304;BME280;57712;48.752;11.348;2024-01-07T07:36:42;97002.56;;;3.93;100.00
70304;BME280;57712;48.752;11.348;2024-01-07T07:39:09;97002.59;;;3.86;100.00
70304;BME280;57712;48.752;11.348;2024-01-07T07:41:36;97007.59;;;3.84;100.00
70304;BME280;57712;48.752;11.348;2024-01-07T07:44:03;97011.09;;;3.88;100.00
70304;BME280;57712;48.752;11.348;2024-01-07T07:46:30;97002.59;;;3.86;100.00
70304;BME280;57712;48.752;11.348;2024-01-07T07:48:56;97010.69;;;3.93;100.00
70304;BME280;57712;48.752;11.348;2024-01-07T07:51:23;97010.31;;;3.91;100.00
70304;BME280;57712;48.752;11.348;2024-01-07T07:53:50;97009.16;;;3.78;100.00
70304;BME280;57712;48.752;11.348;2024-01-07T07:56:17;97019.63;;;3.76;100.00
70304;BME280;57712;48.752;11.348;2024-01-07T07:58:43;97010.28;;;3.63;100.00
70304;BME280;57712;48.752;11.348;2024-01-07T08:01:10;97015.31;;;3.75;100.00
70304;BME280;57712;48.752;11.348;2024-01-07T08:03:37;97012.63;;;3.61;100.00
70304;BME280;57712;48.752;11.348;2024-01-07T08:06:04;97019.97;;;3.67;100.00
70304;BME280;57712;48.752;11.348;2024-01-07T08:08:34;97027.72;;;3.72;100.00
70304;BME280;57712;48.752;11.348;2024-01-07T08:11:01;97030.78;;;3.60;100.00
70304;BME280;57712;48.752;11.348;2024-01-07T08:13:28;97036.63;;;3.73;100.00
70304;BME280;57712;48.752;11.348;2024-01-07T08:15:54;97028.88;;;3.61;100.00
70304;BME280;57712;48.752;11.348;2024-01-07T08:18:21;97036.63;;;3.66;100.00
70304;BME280;57712;48.752;11.348;2024-01-07T08:20:48;97042.81;;;3.77;100.00
70304;BME280;57712;48.752;11.348;2024-01-07T08:23:14;97039.34;;;3.80;100.00
70304;BME280;57712;48.752;11.348;2024-01-07T08:25:42;97051.34;;;3.93;100.00
70304;BME280;57712;48.752;11.348;2024-01-07T08:28:09;97053.69;;;3.98;100.00
70304;BME280;57712;48.752;11.348;2024-01-07T08:30:36;97052.88;;;3.73;100.00
70304;BME280;57712;48.752;11.348;2024-01-07T08:33:03;97057.56;;;4.01;100.00
70304;BME280;57712;48.752;11.348;2024-01-07T08:35:29;97055.22;;;4.03;100.00
70304;BME280;57712;48.752;11.348;2024-01-07T08:37:56;97061.03;;;3.98;100.00
70304;BME280;57712;48.752;11.348;2024-01-07T08:40:23;97061.44;;;4.00;100.00
70304;BME280;57712;48.752;11.348;2024-01-07T08:42:50;97060.63;;;3.96;100.00
70304;BME280;57712;48.752;11.348;2024-01-07T08:45:17;97061.81;;;4.02;100.00
70304;BME280;57712;48.752;11.348;2024-01-07T08:47:45;97064.13;;;3.93;100.00
70304;BME280;57712;48.752;11.348;2024-01-07T08:50:12;97074.59;;;4.01;100.00
70304;BME280;57712;48.752;11.348;2024-01-07T08:52:39;97070.69;;;3.78;100.00
70304;BME280;57712;48.752;11.348;2024-01-07T08:55:07;97073.78;;;3.76;100.00
70304;BME280;57712;48.752;11.348;2024-01-07T08:57:37;97074.13;;;3.60;100.00
70304;BME280;57712;48.752;11.348;2024-01-07T09:00:07;97070.66;;;3.60;100.00
70304;BME280;57712;48.752;11.348;2024-01-07T09:02:34;97071.44;;;3.71;100.00
70304;BME280;57712;48.752;11.348;2024-01-07T09:05:06;97083.81;;;3.72;100.00
70304;BME280;57712;48.752;11.348;2024-01-07T09:07:33;97086.88;;;3.60;100.00
70304;BME280;57712;48.752;11.348;2024-01-07T09:09:59;97090.00;;;3.58;100.00
70304;BME280;57712;48.752;11.348;2024-01-07T09:12:27;97092.28;;;3.53;100.00
70304;BME280;57712;48.752;11.348;2024-01-07T09:14:54;97093.50;;;3.66;100.00
70304;BME280;57712;48.752;11.348;2024-01-07T09:17:20;97089.25;;;3.72;100.00
70304;BME280;57712;48.752;11.348;2024-01-07T09:19:48;97089.25;;;3.75;100.00
70304;BME280;57712;48.752;11.348;2024-01-07T09:22:14;97091.94;;;3.68;100.00
70304;BME280;57712;48.752;11.348;2024-01-07T09:24:41;97092.69;;;3.55;100.00
70304;BME280;57712;48.752;11.348;2024-01-07T09:27:08;97096.19;;;3.66;100.00
70304;BME280;57712;48.752;11.348;2024-01-07T09:29:35;97099.66;;;3.56;100.00
70304;BME280;57712;48.752;11.348;2024-01-07T09:32:01;97100.84;;;3.69;100.00
70304;BME280;57712;48.752;11.348;2024-01-07T09:34:28;97107.03;;;3.66;100.00
70304;BME280;57712;48.752;11.348;2024-01-07T09:36:55;97106.25;;;3.65;100.00
70304;BME280;57712;48.752;11.348;2024-01-07T09:39:22;97111.72;;;3.76;100.00
70304;BME280;57712;48.752;11.348;2024-01-07T09:41:48;97105.44;;;3.51;100.00
70304;BME280;57712;48.752;11.348;2024-01-07T09:44:16;97106.97;;;3.48;100.00
70304;BME280;57712;48.752;11.348;2024-01-07T09:46:44;97116.28;;;3.58;100.00
70304;BME280;57712;48.752;11.348;2024-01-07T09:49:16;97103.84;;;3.39;100.00
70304;BME280;57712;48.752;11.348;2024-01-07T09:51:45;97111.53;;;3.26;100.00
70304;BME280;57712;48.752;11.348;2024-01-07T09:54:13;97120.84;;;3.36;100.00
70304;BME280;57712;48.752;11.348;2024-01-07T09:56:50;97116.59;;;3.35;100.00
70304;BME280;57712;48.752;11.348;2024-01-07T09:59:20;97123.94;;;3.41;100.00
70304;BME280;57712;48.752;11.348;2024-01-07T10:01:46;97118.16;;;3.43;100.00
70304;BME280;57712;48.752;11.348;2024-01-07T10:04:15;97124.69;;;3.31;100.00
70304;BME280;57712;48.752;11.348;2024-01-07T10:06:42;97123.94;;;3.38;100.00
70304;BME280;57712;48.752;11.348;2024-01-07T10:09:08;97123.47;;;3.18;100.00
70304;BME280;57712;48.752;11.348;2024-01-07T10:11:35;97125.84;;;3.30;100.00
70304;BME280;57712;48.752;11.348;2024-01-07T10:14:02;97127.00;;;3.29;100.00
70304;BME280;57712;48.752;11.348;2024-01-07T10:16:29;97128.94;;;3.29;100.00
70304;BME280;57712;48.752;11.348;2024-01-07T10:18:55;97133.25;;;3.44;100.00
70304;BME280;57712;48.752;11.348;2024-01-07T10:21:24;97131.66;;;3.32;100.00
70304;BME280;57712;48.752;11.348;2024-01-07T10:24:07;97131.72;;;3.46;100.00
70304;BME280;57712;48.752;11.348;2024-01-07T10:26:34;97123.91;;;3.31;100.00
70304;BME280;57712;48.752;11.348;2024-01-07T10:29:04;97129.28;;;3.20;100.00
70304;BME280;57712;48.752;11.348;2024-01-07T10:31:34;97132.38;;;3.22;100.00
70304;BME280;57712;48.752;11.348;2024-01-07T10:34:01;97133.19;;;3.26;100.00
70304;BME280;57712;48.752;11.348;2024-01-07T10:36:28;97130.13;;;3.35;100.00
70304;BME280;57712;48.752;11.348;2024-01-07T10:38:56;97127.03;;;3.36;100.00
70304;BME280;57712;48.752;11.348;2024-01-07T10:41:23;97138.59;;;3.26;100.00
70304;BME280;57712;48.752;11.348;2024-01-07T10:43:51;97140.16;;;3.31;100.00
70304;BME280;57712;48.752;11.348;2024-01-07T10:46:18;97137.06;;;3.32;100.00
70304;BME280;57712;48.752;11.348;2024-01-07T10:48:54;97142.78;;;3.16;100.00
70304;BME280;57712;48.752;11.348;2024-01-07T10:51:21;97145.44;;;3.06;100.00
70304;BME280;57712;48.752;11.348;2024-01-07T10:53:51;97143.13;;;3.08;100.00
70304;BME280;57712;48.752;11.348;2024-01-07T10:56:23;97141.25;;;3.15;100.00
70304;BME280;57712;48.752;11.348;2024-01-07T10:58:52;97142.84;;;3.27;100.00
70304;BME280;57712;48.752;11.348;2024-01-07T11:01:20;97142.34;;;3.07;100.00
70304;BME280;57712;48.752;11.348;2024-01-07T11:04:08;97138.59;;;3.26;100.00
70304;BME280;57712;48.752;11.348;2024-01-07T11:07:00;97140.78;;;3.03;100.00
70304;BME280;57712;48.752;11.348;2024-01-07T11:09:36;97146.28;;;3.17;100.00
70304;BME280;57712;48.752;11.348;2024-01-07T11:12:05;97138.47;;;3.05;100.00
70304;BME280;57712;48.752;11.348;2024-01-07T11:14:41;97135.72;;;2.98;100.00
70304;BME280;57712;48.752;11.348;2024-01-07T11:20:19;97143.13;;;3.08;100.00
70304;BME280;57712;48.752;11.348;2024-01-07T11:22:47;97149.38;;;3.19;100.00
70304;BME280;57712;48.752;11.348;2024-01-07T11:28:01;97154.66;;;2.98;100.00
70304;BME280;57712;48.752;11.348;2024-01-07T11:30:28;97154.66;;;2.98;100.00
70304;BME280;57712;48.752;11.348;2024-01-07T11:32:59;97155.41;;;2.95;100.00
70304;BME280;57712;48.752;11.348;2024-01-07T11:35:59;97153.19;;;3.07;100.00
70304;BME280;57712;48.752;11.348;2024-01-07T11:38:27;97150.91;;;3.13;100.00
70304;BME280;57712;48.752;11.348;2024-01-07T11:40:56;97150.09;;;3.09;100.00
70304;BME280;57712;48.752;11.348;2024-01-07T11:43:22;97147.00;;;3.07;100.00
70304;BME280;57712;48.752;11.348;2024-01-07T11:45:52;97153.91;;;3.01;100.00
70304;BME280;57712;48.752;11.348;2024-01-07T11:48:21;97145.69;;;2.86;100.00
70304;BME280;57712;48.752;11.348;2024-01-07T11:50:47;97146.91;;;2.93;100.00
70304;BME280;57712;48.752;11.348;2024-01-07T11:53:16;97149.66;;;3.00;100.00
70304;BME280;57712;48.752;11.348;2024-01-07T11:55:44;97156.25;;;3.02;100.00
70304;BME280;57712;48.752;11.348;2024-01-07T11:58:11;97165.41;;;2.90;100.00
70304;BME280;57712;48.752;11.348;2024-01-07T12:00:38;97166.97;;;2.88;100.00
70304;BME280;57712;48.752;11.348;2024-01-07T12:03:05;97152.69;;;2.91;100.00
70304;BME280;57712;48.752;11.348;2024-01-07T12:05:31;97167.72;;;2.88;100.00
70304;BME280;57712;48.752;11.348;2024-01-07T12:08:00;97166.97;;;2.92;100.00
70304;BME280;57712;48.752;11.348;2024-01-07T12:10:27;97172.28;;;2.74;100.00
70304;BME280;57712;48.752;11.348;2024-01-07T12:12:54;97171.44;;;2.66;100.00
70304;BME280;57712;48.752;11.348;2024-01-07T12:15:21;97176.22;;;2.83;100.00
70304;BME280;57712;48.752;11.348;2024-01-07T12:17:57;97175.38;;;2.76;100.00
70304;BME280;57712;48.752;11.348;2024-01-07T12:20:26;97169.03;;;2.54;100.00
70304;BME280;57712;48.752;11.348;2024-01-07T12:22:56;97174.53;;;2.68;100.00
70304;BME280;57712;48.752;11.348;2024-01-07T12:25:23;97182.28;;;2.70;100.00
70304;BME280;57712;48.752;11.348;2024-01-07T12:27:51;97173.81;;;2.71;100.00
70304;BME280;57712;48.752;11.348;2024-01-07T12:30:20;97179.63;;;2.73;100.00
70304;BME280;57712;48.752;11.348;2024-01-07T12:32:47;97174.84;;;2.59;100.00
70304;BME280;57712;48.752;11.348;2024-01-07T12:35:14;97190.75;;;2.68;100.00
70304;BME280;57712;48.752;11.348;2024-01-07T12:37:42;97191.81;;;2.53;100.00
70304;BME280;57712;48.752;11.348;2024-01-07T12:40:09;97187.03;;;2.39;100.00
70304;BME280;57712;48.752;11.348;2024-01-07T12:42:40;97185.00;;;2.29;100.00
70304;BME280;57712;48.752;11.348;2024-01-07T12:45:13;97180.84;;;2.39;100.00
70304;BME280;57712;48.752;11.348;2024-01-07T12:47:41;97184.56;;;2.64;100.00
70304;BME280;57712;48.752;11.348;2024-01-07T12:50:09;97186.81;;;2.58;100.00
70304;BME280;57712;48.752;11.348;2024-01-07T12:52:37;97189.50;;;2.55;100.00
70304;BME280;57712;48.752;11.348;2024-01-07T12:55:05;97196.25;;;2.75;100.00
70304;BME280;57712;48.752;11.348;2024-01-07T12:57:33;97194.56;;;2.60;100.00